createdAt,value
2023-04-15T00:00:09.257Z,6.73
2023-04-15T00:01:09.232Z,6.76
2023-04-15T00:02:09.267Z,6.72
2023-04-15T00:03:09.329Z,6.69
2023-04-15T00:04:09.223Z,6.75
2023-04-15T00:05:09.187Z,6.68
2023-04-15T00:06:09.162Z,6.68
2023-04-15T00:07:09.168Z,6.68
2023-04-15T00:08:09.128Z,6.73
2023-04-15T00:09:09.106Z,6.65
2023-04-15T00:10:09.100Z,6.65
2023-04-15T00:11:09.084Z,6.65
2023-04-15T00:12:09.089Z,6.64
2023-04-15T00:13:09.052Z,6.64
2023-04-15T00:14:09.036Z,6.65
2023-04-15T00:15:09.018Z,6.63
2023-04-15T00:16:09.003Z,6.71
2023-04-15T00:17:08.988Z,6.71
2023-04-15T00:18:08.973Z,6.72
2023-04-15T00:19:08.957Z,6.63
2023-04-15T00:20:08.942Z,6.69
2023-04-15T00:21:08.925Z,6.65
2023-04-15T00:22:08.910Z,6.75
2023-04-15T00:23:08.901Z,6.71
2023-04-15T00:24:08.891Z,6.75
2023-04-15T00:25:08.867Z,6.90
2023-04-15T00:26:08.870Z,7.04
2023-04-15T00:27:08.889Z,7.21
2023-04-15T00:28:08.851Z,7.11
2023-04-15T00:29:08.805Z,7.30
2023-04-15T00:30:08.797Z,7.24
2023-04-15T00:31:08.801Z,7.12
2023-04-15T00:32:08.762Z,7.11
2023-04-15T00:33:08.751Z,7.07
2023-04-15T00:34:08.756Z,6.96
2023-04-15T00:35:08.714Z,6.99
2023-04-15T00:36:08.700Z,6.94
2023-04-15T00:37:08.680Z,6.93
2023-04-15T00:38:08.681Z,6.93
2023-04-15T00:39:08.654Z,6.91
2023-04-15T00:40:08.639Z,6.91
2023-04-15T00:41:08.622Z,7.07
2023-04-15T00:42:08.615Z,6.96
2023-04-15T00:43:08.594Z,7.07
2023-04-15T00:44:08.620Z,7.07
2023-04-15T00:45:08.563Z,7.15
2023-04-15T00:46:08.567Z,7.15
2023-04-15T00:47:08.532Z,7.16
2023-04-15T00:48:08.525Z,7.23
2023-04-15T00:49:08.520Z,7.18
2023-04-15T00:50:08.487Z,7.14
2023-04-15T00:51:08.473Z,7.23
2023-04-15T00:52:08.457Z,7.12
2023-04-15T00:53:08.441Z,7.18
2023-04-15T00:54:08.427Z,7.15
2023-04-15T00:55:08.411Z,7.27
2023-04-15T00:56:08.396Z,7.33
2023-04-15T00:57:08.382Z,7.42
2023-04-15T00:58:08.366Z,7.42
2023-04-15T00:59:08.352Z,7.50
2023-04-15T01:00:08.356Z,7.41
2023-04-15T01:01:08.334Z,7.41
2023-04-15T01:02:08.513Z,7.39
2023-04-15T01:03:08.416Z,7.44
2023-04-15T01:04:08.329Z,7.37
2023-04-15T01:05:08.262Z,7.41
2023-04-15T01:06:08.251Z,7.34
2023-04-15T01:07:08.231Z,7.32
2023-04-15T01:08:08.225Z,7.37
2023-04-15T01:09:08.207Z,7.45
2023-04-15T01:10:08.194Z,7.45
2023-04-15T01:11:08.175Z,7.23
2023-04-15T01:12:08.152Z,7.41
2023-04-15T01:13:08.143Z,7.34
2023-04-15T01:14:08.122Z,7.36
2023-04-15T01:15:08.107Z,7.33
2023-04-15T01:16:08.189Z,7.37
2023-04-15T01:17:08.098Z,7.32
2023-04-15T01:18:08.060Z,7.33
2023-04-15T01:19:08.055Z,7.37
2023-04-15T01:20:08.041Z,7.42
2023-04-15T01:21:08.020Z,7.34
2023-04-15T01:22:08.007Z,7.44
2023-04-15T01:23:07.996Z,7.33
2023-04-15T01:24:07.970Z,7.37
2023-04-15T01:25:07.962Z,7.41
2023-04-15T01:26:07.949Z,7.42
2023-04-15T01:27:07.934Z,7.29
2023-04-15T01:28:07.910Z,7.32
2023-04-15T01:29:07.898Z,7.34
2023-04-15T01:30:07.878Z,7.45
2023-04-15T01:31:07.994Z,7.41
2023-04-15T01:32:08.004Z,7.36
2023-04-15T01:33:07.836Z,7.33
2023-04-15T01:34:07.818Z,7.42
2023-04-15T01:35:07.814Z,7.45
2023-04-15T01:36:07.788Z,7.34
2023-04-15T01:37:07.779Z,7.30
2023-04-15T01:38:07.773Z,7.45
2023-04-15T01:39:07.749Z,7.55
2023-04-15T01:40:07.727Z,7.48
2023-04-15T01:41:07.929Z,7.50
2023-04-15T01:42:07.710Z,7.57
2023-04-15T01:43:07.689Z,7.55
2023-04-15T01:44:07.682Z,7.55
2023-04-15T01:45:07.657Z,7.44
2023-04-15T01:46:07.641Z,7.52
2023-04-15T01:47:07.637Z,7.39
2023-04-15T01:48:07.630Z,7.55
2023-04-15T01:49:07.629Z,7.60
2023-04-15T01:50:07.587Z,7.55
2023-04-15T01:51:07.576Z,7.45
2023-04-15T01:52:07.551Z,7.48
2023-04-15T01:53:07.540Z,7.44
2023-04-15T01:54:07.524Z,7.48
2023-04-15T01:55:07.511Z,7.42
2023-04-15T01:56:07.499Z,7.41
2023-04-15T01:57:07.481Z,7.45
2023-04-15T01:58:07.460Z,7.50
2023-04-15T01:59:07.455Z,7.42
2023-04-15T02:00:07.432Z,7.50
2023-04-15T02:01:07.460Z,7.44
2023-04-15T02:02:07.440Z,7.45
2023-04-15T02:03:07.458Z,7.42
2023-04-15T02:04:07.444Z,7.48
2023-04-15T02:05:07.360Z,7.45
2023-04-15T02:06:07.343Z,7.52
2023-04-15T02:07:07.332Z,7.52
2023-04-15T02:08:07.313Z,7.55
2023-04-15T02:09:07.300Z,7.67
2023-04-15T02:10:07.281Z,7.54
2023-04-15T02:11:07.278Z,7.52
2023-04-15T02:12:07.251Z,7.45
2023-04-15T02:14:07.228Z,7.41
2023-04-15T02:15:07.210Z,7.41
2023-04-15T02:16:07.216Z,7.42
2023-04-15T02:17:07.175Z,7.44
2023-04-15T02:18:07.165Z,7.37
2023-04-15T02:19:07.154Z,7.37
2023-04-15T02:20:07.157Z,7.42
2023-04-15T02:21:07.118Z,7.34
2023-04-15T02:22:07.105Z,7.32
2023-04-15T02:23:07.087Z,7.30
2023-04-15T02:24:07.074Z,7.45
2023-04-15T02:25:07.058Z,7.30
2023-04-15T02:26:07.046Z,7.36
2023-04-15T02:27:07.028Z,7.23
2023-04-15T02:28:07.012Z,7.24
2023-04-15T02:29:06.996Z,7.30
2023-04-15T02:30:06.985Z,7.29
2023-04-15T02:31:06.967Z,7.39
2023-04-15T02:32:07.037Z,7.34
2023-04-15T02:33:06.940Z,7.41
2023-04-15T02:34:06.927Z,7.34
2023-04-15T02:35:06.920Z,7.45
2023-04-15T02:36:06.917Z,7.41
2023-04-15T02:37:06.882Z,7.57
2023-04-15T02:38:06.868Z,7.48
2023-04-15T02:39:06.854Z,7.44
2023-04-15T02:40:06.834Z,7.54
2023-04-15T02:41:06.815Z,7.54
2023-04-15T02:42:06.812Z,7.55
2023-04-15T02:43:06.794Z,7.60
2023-04-15T02:44:06.784Z,7.66
2023-04-15T02:45:06.760Z,7.57
2023-04-15T02:46:06.814Z,7.52
2023-04-15T02:47:06.728Z,7.58
2023-04-15T02:48:06.803Z,7.63
2023-04-15T02:49:06.698Z,7.52
2023-04-15T02:50:06.688Z,7.66
2023-04-15T02:51:06.669Z,7.66
2023-04-15T02:52:06.674Z,7.63
2023-04-15T02:53:06.638Z,7.67
2023-04-15T02:54:06.624Z,7.70
2023-04-15T02:55:06.616Z,7.79
2023-04-15T02:56:06.591Z,7.84
2023-04-15T02:57:06.578Z,7.77
2023-04-15T02:58:06.564Z,7.76
2023-04-15T02:59:06.548Z,7.77
2023-04-15T03:00:06.535Z,7.85
2023-04-15T03:01:06.547Z,7.84
2023-04-15T03:02:06.516Z,7.82
2023-04-15T03:03:06.714Z,7.94
2023-04-15T03:04:06.536Z,8.03
2023-04-15T03:05:06.459Z,7.94
2023-04-15T03:06:06.446Z,7.95
2023-04-15T03:07:06.440Z,7.92
2023-04-15T03:08:06.436Z,7.96
2023-04-15T03:09:06.401Z,7.96
2023-04-15T03:10:06.381Z,8.06
2023-04-15T03:11:06.371Z,8.18
2023-04-15T03:12:06.353Z,8.17
2023-04-15T03:13:06.339Z,8.12
2023-04-15T03:14:06.327Z,8.14
2023-04-15T03:15:06.305Z,8.09
2023-04-15T03:16:06.332Z,8.14
2023-04-15T03:17:06.285Z,8.10
2023-04-15T03:18:06.266Z,8.09
2023-04-15T03:19:06.246Z,7.95
2023-04-15T03:20:06.261Z,8.00
2023-04-15T03:21:06.215Z,7.96
2023-04-15T03:22:06.206Z,7.94
2023-04-15T03:23:06.188Z,7.81
2023-04-15T03:24:06.197Z,7.74
2023-04-15T03:25:06.155Z,7.76
2023-04-15T03:26:06.156Z,7.74
2023-04-15T03:27:06.137Z,7.77
2023-04-15T03:28:06.132Z,7.74
2023-04-15T03:29:06.099Z,7.74
2023-04-15T03:30:06.094Z,7.71
2023-04-15T03:31:06.076Z,7.69
2023-04-15T03:32:06.063Z,7.69
2023-04-15T03:33:06.047Z,7.70
2023-04-15T03:34:06.033Z,7.74
2023-04-15T03:35:06.012Z,7.70
2023-04-15T03:36:05.998Z,7.66
2023-04-15T03:37:05.995Z,7.62
2023-04-15T03:38:05.973Z,7.58
2023-04-15T03:39:05.952Z,7.66
2023-04-15T03:40:05.959Z,7.58
2023-04-15T03:41:05.922Z,7.69
2023-04-15T03:42:05.910Z,7.70
2023-04-15T03:43:05.893Z,7.69
2023-04-15T03:44:05.885Z,7.63
2023-04-15T03:45:05.862Z,7.67
2023-04-15T03:46:05.879Z,7.71
2023-04-15T03:47:05.841Z,7.66
2023-04-15T03:48:16.767Z,7.73
2023-04-15T03:49:05.804Z,7.69
2023-04-15T03:50:05.802Z,7.67
2023-04-15T03:51:05.774Z,7.73
2023-04-15T03:52:05.775Z,7.70
2023-04-15T03:53:05.752Z,7.76
2023-04-15T03:54:05.737Z,7.86
2023-04-15T03:55:05.714Z,7.77
2023-04-15T03:56:05.729Z,7.79
2023-04-15T03:57:05.695Z,7.82
2023-04-15T03:58:05.686Z,7.74
2023-04-15T03:59:05.663Z,7.88
2023-04-15T04:00:05.648Z,7.88
2023-04-15T04:01:05.626Z,7.81
2023-04-15T04:02:05.842Z,7.82
2023-04-15T04:03:05.747Z,7.86
2023-04-15T04:04:05.668Z,7.91
2023-04-15T04:05:05.568Z,7.86
2023-04-15T04:06:05.555Z,7.82
2023-04-15T04:07:05.539Z,7.89
2023-04-15T04:08:05.524Z,7.94
2023-04-15T04:09:05.708Z,7.96
2023-04-15T04:10:05.494Z,7.95
2023-04-15T04:11:05.475Z,7.96
2023-04-15T04:12:05.485Z,7.96
2023-04-15T04:13:05.457Z,7.95
2023-04-15T04:14:05.434Z,7.89
2023-04-15T04:15:05.417Z,7.79
2023-04-15T04:16:05.495Z,7.81
2023-04-15T04:17:05.489Z,7.79
2023-04-15T04:18:05.376Z,7.74
2023-04-15T04:19:05.373Z,7.73
2023-04-15T04:20:05.360Z,7.76
2023-04-15T04:21:05.344Z,7.76
2023-04-15T04:22:05.319Z,7.76
2023-04-15T04:23:05.296Z,7.73
2023-04-15T04:24:05.285Z,7.76
2023-04-15T04:25:05.269Z,7.76
2023-04-15T04:26:05.263Z,7.77
2023-04-15T04:27:05.241Z,7.71
2023-04-15T04:28:05.244Z,7.74
2023-04-15T04:29:05.210Z,7.73
2023-04-15T04:30:05.207Z,7.66
2023-04-15T04:31:05.190Z,7.67
2023-04-15T04:32:05.190Z,7.67
2023-04-15T04:33:05.194Z,7.63
2023-04-15T04:34:05.137Z,7.66
2023-04-15T04:35:05.129Z,7.69
2023-04-15T04:36:05.106Z,7.67
2023-04-15T04:37:05.089Z,7.74
2023-04-15T04:38:05.078Z,7.67
2023-04-15T04:39:05.058Z,7.69
2023-04-15T04:40:05.051Z,7.73
2023-04-15T04:41:05.029Z,7.70
2023-04-15T04:42:05.017Z,7.70
2023-04-15T04:43:05.004Z,7.73
2023-04-15T04:44:05.016Z,7.69
2023-04-15T04:45:04.980Z,7.76
2023-04-15T04:46:04.994Z,7.77
2023-04-15T04:47:04.943Z,7.74
2023-04-15T04:48:04.962Z,7.76
2023-04-15T04:49:05.128Z,7.77
2023-04-15T04:50:04.899Z,7.79
2023-04-15T04:51:04.884Z,7.81
2023-04-15T04:52:04.866Z,7.86
2023-04-15T04:53:04.849Z,7.88
2023-04-15T04:54:04.842Z,7.95
2023-04-15T04:55:04.819Z,7.85
2023-04-15T04:56:04.807Z,7.86
2023-04-15T04:57:04.798Z,7.79
2023-04-15T04:58:04.780Z,7.86
2023-04-15T04:59:04.760Z,8.00
2023-04-15T05:00:04.768Z,7.95
2023-04-15T05:01:04.769Z,7.88
2023-04-15T05:02:04.816Z,7.88
2023-04-15T05:03:04.846Z,7.77
2023-04-15T05:04:05.172Z,7.82
2023-04-15T05:05:04.672Z,7.77
2023-04-15T05:06:04.661Z,7.71
2023-04-15T05:07:04.649Z,7.76
2023-04-15T05:08:04.633Z,7.70
2023-04-15T05:09:04.613Z,7.76
2023-04-15T05:10:04.604Z,7.73
2023-04-15T05:11:04.585Z,7.73
2023-04-15T05:12:04.571Z,7.69
2023-04-15T05:13:04.554Z,7.69
2023-04-15T05:14:04.540Z,7.70
2023-04-15T05:15:04.526Z,7.71
2023-04-15T05:16:04.610Z,7.79
2023-04-15T05:17:04.505Z,7.81
2023-04-15T05:18:04.511Z,7.91
2023-04-15T05:19:04.469Z,7.92
2023-04-15T05:20:04.527Z,7.94
2023-04-15T05:21:04.438Z,7.92
2023-04-15T05:22:04.428Z,7.96
2023-04-15T05:23:04.414Z,7.95
2023-04-15T05:24:04.395Z,8.00
2023-04-15T05:25:04.388Z,7.91
2023-04-15T05:26:04.362Z,8.07
2023-04-15T05:27:04.359Z,8.14
2023-04-15T05:28:04.333Z,8.24
2023-04-15T05:29:04.467Z,8.17
2023-04-15T05:30:04.299Z,8.21
2023-04-15T05:31:04.335Z,8.14
2023-04-15T05:32:04.291Z,8.20
2023-04-15T05:33:04.281Z,8.18
2023-04-15T05:34:04.242Z,8.18
2023-04-15T05:35:04.231Z,8.22
2023-04-15T05:36:04.217Z,8.28
2023-04-15T05:37:04.201Z,8.42
2023-04-15T05:38:04.189Z,8.27
2023-04-15T05:39:04.256Z,8.28
2023-04-15T05:40:04.156Z,8.29
2023-04-15T05:41:04.148Z,8.39
2023-04-15T05:42:04.125Z,8.40
2023-04-15T05:43:04.122Z,8.60
2023-04-15T05:44:04.105Z,8.63
2023-04-15T05:45:04.080Z,8.70
2023-04-15T05:46:04.110Z,8.71
2023-04-15T05:47:04.062Z,8.75
2023-04-15T05:48:04.056Z,8.71
2023-04-15T05:49:04.108Z,8.71
2023-04-15T05:50:04.007Z,8.68
2023-04-15T05:51:04.008Z,8.85
2023-04-15T05:52:04.007Z,8.68
2023-04-15T05:53:03.972Z,8.80
2023-04-15T05:54:03.950Z,8.80
2023-04-15T05:55:03.938Z,8.78
2023-04-15T05:56:03.920Z,8.83
2023-04-15T05:57:03.926Z,8.85
2023-04-15T05:58:03.890Z,8.94
2023-04-15T05:59:03.900Z,8.94
2023-04-15T06:01:03.847Z,8.91
2023-04-15T06:02:03.863Z,8.89
2023-04-15T06:03:03.904Z,8.83
2023-04-15T06:04:03.930Z,8.86
2023-04-15T06:05:03.984Z,8.78
2023-04-15T06:06:03.794Z,8.89
2023-04-15T06:07:03.763Z,8.88
2023-04-15T06:08:03.748Z,8.88
2023-04-15T06:09:04.051Z,8.94
2023-04-15T06:10:03.720Z,8.89
2023-04-15T06:11:03.702Z,8.89
2023-04-15T06:12:03.692Z,8.91
2023-04-15T06:13:03.673Z,8.91
2023-04-15T06:14:03.662Z,8.96
2023-04-15T06:15:03.644Z,8.93
2023-04-15T06:16:03.679Z,8.97
2023-04-15T06:17:03.616Z,9.00
2023-04-15T06:18:03.621Z,9.00
2023-04-15T06:19:03.661Z,9.06
2023-04-15T06:20:03.594Z,8.98
2023-04-15T06:21:03.557Z,9.16
2023-04-15T06:22:03.549Z,9.37
2023-04-15T06:23:03.531Z,9.24
2023-04-15T06:24:03.517Z,9.26
2023-04-15T06:25:03.507Z,9.30
2023-04-15T06:26:03.492Z,9.30
2023-04-15T06:27:03.478Z,9.26
2023-04-15T06:28:03.459Z,9.34
2023-04-15T06:29:03.634Z,9.40
2023-04-15T06:30:03.434Z,9.41
2023-04-15T06:31:03.436Z,9.34
2023-04-15T06:32:03.407Z,9.53
2023-04-15T06:33:03.442Z,9.42
2023-04-15T06:34:03.377Z,9.58
2023-04-15T06:35:03.358Z,9.49
2023-04-15T06:36:03.364Z,9.48
2023-04-15T06:37:05.074Z,9.45
2023-04-15T06:38:03.319Z,9.55
2023-04-15T06:39:03.584Z,9.48
2023-04-15T06:40:03.293Z,9.48
2023-04-15T06:41:03.274Z,9.50
2023-04-15T06:42:03.263Z,9.58
2023-04-15T06:43:03.249Z,9.58
2023-04-15T06:44:03.234Z,9.59
2023-04-15T06:45:03.311Z,9.53
2023-04-15T06:46:03.296Z,9.58
2023-04-15T06:48:03.175Z,9.67
2023-04-15T06:49:03.379Z,9.70
2023-04-15T06:50:03.146Z,9.75
2023-04-15T06:51:03.136Z,9.78
2023-04-15T06:52:03.136Z,9.81
2023-04-15T06:53:03.123Z,9.83
2023-04-15T06:54:03.092Z,9.86
2023-04-15T06:55:03.246Z,9.86
2023-04-15T06:56:03.062Z,9.78
2023-04-15T06:57:03.054Z,9.95
2023-04-15T06:58:03.032Z,9.85
2023-04-15T06:59:03.117Z,9.88
2023-04-15T07:00:03.008Z,9.93
2023-04-15T07:01:03.034Z,9.96
2023-04-15T07:02:03.038Z,9.95
2023-04-15T07:03:02.986Z,9.99
2023-04-15T07:04:02.957Z,9.96
2023-04-15T07:05:02.944Z,9.98
2023-04-15T07:06:02.925Z,10.02
2023-04-15T07:07:02.917Z,9.96
2023-04-15T07:08:02.916Z,9.98
2023-04-15T07:09:03.168Z,9.92
2023-04-15T07:10:02.868Z,10.06
2023-04-15T07:11:02.875Z,9.99
2023-04-15T07:12:02.843Z,9.95
2023-04-15T07:13:02.828Z,10.06
2023-04-15T07:14:02.814Z,9.98
2023-04-15T07:15:02.814Z,10.01
2023-04-15T07:16:02.788Z,10.06
2023-04-15T07:17:02.817Z,10.07
2023-04-15T07:18:02.858Z,9.93
2023-04-15T07:19:03.098Z,10.06
2023-04-15T07:20:02.729Z,10.07
2023-04-15T07:21:02.727Z,10.04
2023-04-15T07:22:02.705Z,10.17
2023-04-15T07:23:02.710Z,10.22
2023-04-15T07:24:02.899Z,10.28
2023-04-15T07:25:02.672Z,10.22
2023-04-15T07:26:02.657Z,10.24
2023-04-15T07:27:02.655Z,10.35
2023-04-15T07:28:02.632Z,10.32
2023-04-15T07:29:02.975Z,10.29
2023-04-15T07:30:02.598Z,10.28
2023-04-15T07:31:02.614Z,10.29
2023-04-15T07:32:02.572Z,10.35
2023-04-15T07:33:02.577Z,10.35
2023-04-15T07:34:02.544Z,10.36
2023-04-15T07:35:02.530Z,10.32
2023-04-15T07:36:02.515Z,10.42
2023-04-15T07:37:02.502Z,10.46
2023-04-15T07:38:02.487Z,10.55
2023-04-15T07:39:02.889Z,10.52
2023-04-15T07:40:02.491Z,10.63
2023-04-15T07:41:02.455Z,10.70
2023-04-15T07:42:02.570Z,10.72
2023-04-15T07:43:02.425Z,10.73
2023-04-15T07:44:02.411Z,10.86
2023-04-15T07:45:02.408Z,10.86
2023-04-15T07:46:02.402Z,10.93
2023-04-15T07:47:02.372Z,10.95
2023-04-15T07:48:02.412Z,11.09
2023-04-15T07:49:02.572Z,11.11
2023-04-15T07:50:02.328Z,11.05
2023-04-15T07:51:02.331Z,11.27
2023-04-15T07:52:02.306Z,11.17
2023-04-15T07:53:02.294Z,11.27
2023-04-15T07:54:02.278Z,11.20
2023-04-15T07:55:02.281Z,11.39
2023-04-15T07:56:02.330Z,11.38
2023-04-15T07:57:02.242Z,11.51
2023-04-15T07:58:02.226Z,11.60
2023-04-15T07:59:02.464Z,11.66
2023-04-15T08:00:02.200Z,11.63
2023-04-15T08:01:02.209Z,11.70
2023-04-15T08:02:02.252Z,11.79
2023-04-15T08:03:02.400Z,11.79
2023-04-15T08:04:02.255Z,11.98
2023-04-15T08:05:02.203Z,12.05
2023-04-15T08:06:02.126Z,12.12
2023-04-15T08:07:02.115Z,12.19
2023-04-15T08:08:02.102Z,12.22
2023-04-15T08:09:02.327Z,12.30
2023-04-15T08:10:02.141Z,12.29
2023-04-15T08:11:02.074Z,12.31
2023-04-15T08:12:02.173Z,12.33
2023-04-15T08:13:02.048Z,12.41
2023-04-15T08:14:02.102Z,12.40
2023-04-15T08:15:02.012Z,12.48
2023-04-15T08:16:02.015Z,12.41
2023-04-15T08:17:01.990Z,12.52
2023-04-15T08:18:01.972Z,12.56
2023-04-15T08:19:02.188Z,12.66
2023-04-15T08:20:01.945Z,12.58
2023-04-15T08:21:01.935Z,12.62
2023-04-15T08:22:01.922Z,12.70
2023-04-15T08:23:01.916Z,12.63
2023-04-15T08:24:01.925Z,12.69
2023-04-15T08:25:01.946Z,12.73
2023-04-15T08:26:01.877Z,12.70
2023-04-15T08:27:01.866Z,12.76
2023-04-15T08:28:01.869Z,12.88
2023-04-15T08:29:02.255Z,12.85
2023-04-15T08:30:04.155Z,12.94
2023-04-15T08:31:01.818Z,13.01
2023-04-15T08:32:01.801Z,13.09
2023-04-15T08:33:01.838Z,13.04
2023-04-15T08:34:01.794Z,13.09
2023-04-15T08:35:01.785Z,13.24
2023-04-15T08:36:01.768Z,13.25
2023-04-15T08:37:01.746Z,13.24
2023-04-15T08:38:01.736Z,13.28
2023-04-15T08:39:01.968Z,13.28
2023-04-15T08:40:01.715Z,13.29
2023-04-15T08:41:01.719Z,13.31
2023-04-15T08:42:01.685Z,13.25
2023-04-15T08:43:01.684Z,13.24
2023-04-15T08:44:01.674Z,13.14
2023-04-15T08:45:01.651Z,13.21
2023-04-15T08:46:01.680Z,12.85
2023-04-15T08:47:01.779Z,12.62
2023-04-15T08:48:01.656Z,12.29
2023-04-15T08:49:01.774Z,12.13
2023-04-15T08:50:01.591Z,12.21
2023-04-15T08:51:01.580Z,12.22
2023-04-15T08:52:01.587Z,12.04
2023-04-15T08:53:01.560Z,12.04
2023-04-15T08:54:01.563Z,11.85
2023-04-15T08:55:01.621Z,11.75
2023-04-15T08:56:01.526Z,11.64
2023-04-15T08:57:01.510Z,11.79
2023-04-15T08:58:01.495Z,11.90
2023-04-15T08:59:01.791Z,12.03
2023-04-15T09:00:02.989Z,12.03
2023-04-15T09:01:01.508Z,12.18
2023-04-15T09:02:01.539Z,12.25
2023-04-15T09:03:01.503Z,12.30
2023-04-15T09:04:01.449Z,12.55
2023-04-15T09:05:01.414Z,12.51
2023-04-15T09:06:01.398Z,12.54
2023-04-15T09:07:01.389Z,12.66
2023-04-15T09:08:01.484Z,12.62
2023-04-15T09:09:01.543Z,12.61
2023-04-15T09:10:01.352Z,12.49
2023-04-15T09:11:01.341Z,12.25
2023-04-15T09:12:01.324Z,11.79
2023-04-15T09:13:01.322Z,11.78
2023-04-15T09:14:01.307Z,11.88
2023-04-15T09:15:01.291Z,11.88
2023-04-15T09:16:01.299Z,12.00
2023-04-15T09:17:01.420Z,12.07
2023-04-15T09:18:01.264Z,11.97
2023-04-15T09:19:01.394Z,12.04
2023-04-15T09:20:01.234Z,11.88
2023-04-15T09:21:01.218Z,11.97
2023-04-15T09:22:01.236Z,12.00
2023-04-15T09:23:01.201Z,11.88
2023-04-15T09:24:01.845Z,11.78
2023-04-15T09:25:35.147Z,11.75
2023-04-15T09:26:01.166Z,11.75
2023-04-15T09:27:01.141Z,11.81
2023-04-15T09:28:01.144Z,11.87
2023-04-15T09:29:01.118Z,12.01
2023-04-15T09:30:01.106Z,12.07
2023-04-15T09:31:01.220Z,12.12
2023-04-15T09:32:01.097Z,12.30
2023-04-15T09:33:01.103Z,12.30
2023-04-15T09:34:01.361Z,12.48
2023-04-15T09:35:01.047Z,12.58
2023-04-15T09:37:01.020Z,12.52
2023-04-15T09:38:01.008Z,12.52
2023-04-15T09:39:00.993Z,12.59
2023-04-15T09:40:00.993Z,12.71
2023-04-15T09:41:00.981Z,12.73
2023-04-15T09:42:00.958Z,12.73
2023-04-15T09:43:00.944Z,12.89
2023-04-15T09:44:01.264Z,12.94
2023-04-15T09:45:00.916Z,12.91
2023-04-15T09:46:00.922Z,13.10
2023-04-15T09:47:00.893Z,13.19
2023-04-15T09:48:00.969Z,13.32
2023-04-15T09:49:00.869Z,13.39
2023-04-15T09:50:00.903Z,13.35
2023-04-15T09:51:00.850Z,13.36
2023-04-15T09:52:05.683Z,13.53
2023-04-15T09:53:00.829Z,13.51
2023-04-15T09:54:01.053Z,13.50
2023-04-15T09:55:00.815Z,13.51
2023-04-15T09:57:00.785Z,13.39
2023-04-15T09:58:00.780Z,13.36
2023-04-15T09:59:00.758Z,13.47
2023-04-15T10:00:00.743Z,13.46
2023-04-15T10:01:00.771Z,13.55
2023-04-15T10:02:00.783Z,13.66
2023-04-15T10:03:00.838Z,13.68
2023-04-15T10:04:01.000Z,13.73
2023-04-15T10:05:00.695Z,13.66
2023-04-15T10:06:00.689Z,13.69
2023-04-15T10:07:00.672Z,13.75
2023-04-15T10:08:00.654Z,13.79
2023-04-15T10:09:00.666Z,13.79
2023-04-15T10:10:00.634Z,13.71
2023-04-15T10:11:00.625Z,13.66
2023-04-15T10:12:00.608Z,13.65
2023-04-15T10:13:00.599Z,13.66
2023-04-15T10:14:00.875Z,13.63
2023-04-15T10:15:00.580Z,13.66
2023-04-15T10:16:00.659Z,13.69
2023-04-15T10:17:00.558Z,13.65
2023-04-15T10:18:00.558Z,13.68
2023-04-15T10:19:00.536Z,13.63
2023-04-15T10:20:00.562Z,13.53
2023-04-15T10:21:00.509Z,13.51
2023-04-15T10:22:00.497Z,13.54
2023-04-15T10:23:00.490Z,13.46
2023-04-15T10:24:00.629Z,13.39
2023-04-15T10:25:00.469Z,13.55
2023-04-15T10:26:00.462Z,13.51
2023-04-15T10:27:00.444Z,13.57
2023-04-15T10:28:00.428Z,13.46
2023-04-15T10:29:00.437Z,13.55
2023-04-15T10:30:00.404Z,13.55
2023-04-15T10:31:00.428Z,13.62
2023-04-15T10:32:00.384Z,13.38
2023-04-15T10:33:00.428Z,13.35
2023-04-15T10:34:00.527Z,13.10
2023-04-15T10:35:00.360Z,12.95
2023-04-15T10:36:00.372Z,12.74
2023-04-15T10:37:00.331Z,12.95
2023-04-15T10:38:00.316Z,12.95
2023-04-15T10:39:00.310Z,13.04
2023-04-15T10:40:00.291Z,13.16
2023-04-15T10:41:00.283Z,13.13
2023-04-15T10:42:00.267Z,13.22
2023-04-15T10:43:00.261Z,13.32
2023-04-15T10:44:00.566Z,13.35
2023-04-15T10:45:00.237Z,13.46
2023-04-15T10:46:00.236Z,13.48
2023-04-15T10:47:00.392Z,13.62
2023-04-15T10:48:02.887Z,13.66
2023-04-15T10:49:00.194Z,13.76
2023-04-15T10:50:00.196Z,13.80
2023-04-15T10:51:00.170Z,13.88
2023-04-15T10:52:00.176Z,13.76
2023-04-15T10:53:00.149Z,13.68
2023-04-15T10:54:00.165Z,13.71
2023-04-15T10:55:00.133Z,13.51
2023-04-15T10:56:00.146Z,13.43
2023-04-15T10:57:00.155Z,13.51
2023-04-15T10:58:00.100Z,13.51
2023-04-15T10:59:00.130Z,13.61
2023-04-15T11:00:00.183Z,13.65
2023-04-15T11:01:00.055Z,13.69
2023-04-15T11:03:00.307Z,13.79
2023-04-15T11:04:00.166Z,13.79
2023-04-15T11:05:00.036Z,13.76
2023-04-15T11:05:59.998Z,13.69
2023-04-15T11:06:59.981Z,13.66
2023-04-15T11:07:59.995Z,13.79
2023-04-15T11:08:59.966Z,13.71
2023-04-15T11:09:59.955Z,13.73
2023-04-15T11:10:59.943Z,13.62
2023-04-15T11:11:59.930Z,13.62
2023-04-15T11:12:59.913Z,13.62
2023-04-15T11:13:59.922Z,13.59
2023-04-15T11:14:59.897Z,13.63
2023-04-15T11:15:59.888Z,13.59
2023-04-15T11:16:59.872Z,13.54
2023-04-15T11:17:59.893Z,13.62
2023-04-15T11:18:59.847Z,13.63
2023-04-15T11:19:59.840Z,13.71
2023-04-15T11:20:59.823Z,13.63
2023-04-15T11:21:59.815Z,13.75
2023-04-15T11:23:14.584Z,13.79
2023-04-15T11:24:00.767Z,13.84
2023-04-15T11:24:59.779Z,13.91
2023-04-15T11:25:59.776Z,13.99
2023-04-15T11:26:59.762Z,14.11
2023-04-15T11:27:59.749Z,14.09
2023-04-15T11:28:59.737Z,14.20
2023-04-15T11:29:59.730Z,14.30
2023-04-15T11:30:59.716Z,14.34
2023-04-15T11:31:59.788Z,14.34
2023-04-15T11:32:59.716Z,14.41
2023-04-15T11:33:59.808Z,14.46
2023-04-15T11:34:59.676Z,14.54
2023-04-15T11:35:59.665Z,14.57
2023-04-15T11:36:59.647Z,14.56
2023-04-15T11:37:59.641Z,14.56
2023-04-15T11:38:59.641Z,14.60
2023-04-15T11:39:59.772Z,14.63
2023-04-15T11:40:59.625Z,14.57
2023-04-15T11:41:59.803Z,14.71
2023-04-15T11:44:59.567Z,14.67
2023-04-15T11:45:59.628Z,14.82
2023-04-15T11:46:59.545Z,14.71
2023-04-15T11:47:59.569Z,14.82
2023-04-15T11:48:59.526Z,14.85
2023-04-15T11:49:59.515Z,14.93
2023-04-15T11:50:59.507Z,14.97
2023-04-15T11:51:59.495Z,15.04
2023-04-15T11:52:59.487Z,15.11
2023-04-15T11:53:59.483Z,15.13
2023-04-15T11:54:59.465Z,15.15
2023-04-15T11:55:59.470Z,15.23
2023-04-15T11:56:59.446Z,15.12
2023-04-15T11:57:59.435Z,15.11
2023-04-15T11:58:59.461Z,15.15
2023-04-15T11:59:59.413Z,15.07
2023-04-15T12:00:59.399Z,15.05
2023-04-15T12:01:59.726Z,15.13
2023-04-15T12:02:59.475Z,15.15
2023-04-15T12:03:59.438Z,15.15
2023-04-15T12:04:59.413Z,15.11
2023-04-15T12:05:59.349Z,15.03
2023-04-15T12:06:59.333Z,15.00
2023-04-15T12:07:59.327Z,15.12
2023-04-15T12:08:59.334Z,15.05
2023-04-15T12:09:59.309Z,15.09
2023-04-15T12:10:59.292Z,15.09
2023-04-15T12:11:59.307Z,15.13
2023-04-15T12:12:59.277Z,15.12
2023-04-15T12:13:59.265Z,15.07
2023-04-15T12:14:59.460Z,15.13
2023-04-15T12:15:59.311Z,15.13
2023-04-15T12:16:59.231Z,15.12
2023-04-15T12:17:59.237Z,15.09
2023-04-15T12:18:59.214Z,15.12
2023-04-15T12:19:59.203Z,15.09
2023-04-15T12:20:59.192Z,15.12
2023-04-15T12:22:00.404Z,15.13
2023-04-15T12:22:59.173Z,15.12
2023-04-15T12:23:59.165Z,15.12
2023-04-15T12:24:59.154Z,15.15
2023-04-15T12:25:59.154Z,15.12
2023-04-15T12:26:59.134Z,15.12
2023-04-15T12:27:59.144Z,15.12
2023-04-15T12:28:59.114Z,15.12
2023-04-15T12:29:59.107Z,15.11
2023-04-15T12:30:59.106Z,14.95
2023-04-15T12:31:59.121Z,15.03
2023-04-15T12:32:59.096Z,15.09
2023-04-15T12:33:59.081Z,15.15
2023-04-15T12:34:59.052Z,15.15
2023-04-15T12:35:59.047Z,15.13
2023-04-15T12:36:59.072Z,15.20
2023-04-15T12:37:59.029Z,15.19
2023-04-15T12:38:59.017Z,15.31
2023-04-15T12:39:59.013Z,15.22
2023-04-15T12:40:59.002Z,15.28
2023-04-15T12:41:58.988Z,15.37
2023-04-15T12:42:58.978Z,15.34
2023-04-15T12:43:59.005Z,15.37
2023-04-15T12:44:58.956Z,15.43
2023-04-15T12:45:58.950Z,15.38
2023-04-15T12:46:59.009Z,15.40
2023-04-15T12:47:58.966Z,15.37
2023-04-15T12:48:58.916Z,15.28
2023-04-15T12:49:58.909Z,15.25
2023-04-15T12:50:58.911Z,15.23
2023-04-15T12:51:58.890Z,15.19
2023-04-15T12:52:58.876Z,15.16
2023-04-15T12:53:58.873Z,15.23
2023-04-15T12:54:58.859Z,15.27
2023-04-15T12:55:58.851Z,15.12
2023-04-15T12:56:58.848Z,15.11
2023-04-15T12:57:58.830Z,15.11
2023-04-15T12:58:58.818Z,15.05
2023-04-15T12:59:58.836Z,15.07
2023-04-15T13:00:58.801Z,15.07
2023-04-15T13:01:58.900Z,15.15
2023-04-15T13:02:58.812Z,15.09
2023-04-15T13:03:58.837Z,15.09
2023-04-15T13:04:58.879Z,15.09
2023-04-15T13:05:58.759Z,15.15
2023-04-15T13:06:58.752Z,15.13
2023-04-15T13:07:58.730Z,15.09
2023-04-15T13:08:59.139Z,15.07
2023-04-15T13:09:58.714Z,15.09
2023-04-15T13:10:58.717Z,15.03
2023-04-15T13:11:58.695Z,15.12
2023-04-15T13:12:58.677Z,15.12
2023-04-15T13:13:58.675Z,15.18